Newville, PA

1:51 PM EDT on June 02, 2015 (GMT -0400)
Harrisburg International | | Change Station
CLOSE
Current Station
Airport
Location: Middletown,
Elevation: 312 ft
Nearby Weather Stations

Elev 312 ft 40.19 °N, 76.76 °W | Updated 22 minutes ago

Rain
Rain
57 °F
Feels Like 57 °F
N
7
Wind Variable Wind from NNE

Today
High -- | Low -- °F
--% Chance of Precip.
Yesterday
High -- | Low -- °F
Precip. -- in
5:41 AM 8:33 PM
Full, 100% visible
Pressure 30.14 in
Visibility 4.0 miles
Clouds Scattered Clouds 800 ft
Mostly Cloudy 3700 ft
Overcast 5000 ft
Dew Point 54 °F
Humidity 88%
Rainfall 0.35 in
Snow Depth Not available.
UV 3 out of 12
Pollen .80 out of 12
Air Quality Not available.
Flu Activity Sporadic
SPECI KMDT 021729Z 02006KT 4SM -RA BR SCT008 BKN037 OVC050 14/12 A3014

More Conditions Fewer Conditions

Pressure 30.14 in
Visibility 4.0 miles
Clouds Scattered Clouds 800 ft
Mostly Cloudy 3700 ft
Overcast 5000 ft
Dew Point 54 °F
Humidity 88%
Rainfall 0.35 in
Snow Depth Not available.
UV 3 out of 12
Pollen .80 out of 12
Air Quality Not available.
Flu Activity Sporadic
SPECI KMDT 021729Z 02006KT 4SM -RA BR SCT008 BKN037 OVC050 14/12 A3014

More Conditions Fewer Conditions

10-Day Weather Forecast

×

Almanac

Astronomy

Jun. 02, 2015 Rise Set
Actual Time
Civil Twilight
Nautical Twilight
Astronomical Twilight
Moon
Length of Visible Light
Length of Day
Tomorrow will be .
, % of the Moon is Illuminated

Today's Extremes

State Highs State Lows

Community

WunderPhotos

Upload Photos

1,825,988 photos uploaded!

WunderBlogs® & News

Nearby

Air Quality

  Air Quality AQ Index Pollutant
Not available.

Snow Depth

Station Depth Elevation

Earthquake Activity

City Distance Mag. Time & Date
Minimum magnitude displayed is 2.5.

Coastal Water Temperatures

Place Temperature

Stations

Nearby Weather Stations

Station Location Temp. Windchill Dew Point Humidity Wind Precip. Elev Updated Type